createdAt,value
2022-09-10T00:01:27.874Z,88.29
2022-09-10T00:06:33.071Z,88.37
2022-09-10T00:11:38.682Z,87.96
2022-09-10T00:16:41.481Z,87.96
2022-09-10T00:21:47.123Z,87.79
2022-09-10T00:26:49.882Z,88.14
2022-09-10T00:31:53.215Z,87.82
2022-09-10T00:36:56.010Z,87.74
2022-09-10T00:41:58.673Z,87.95
2022-09-10T00:47:01.441Z,88.08
2022-09-10T00:52:04.252Z,87.90
2022-09-10T00:57:12.565Z,87.93
2022-09-10T01:02:15.238Z,87.92
2022-09-10T01:07:18.043Z,87.81
2022-09-10T01:13:11.134Z,88.00
2022-09-10T01:18:34.314Z,87.67
2022-09-10T01:24:07.987Z,87.84
2022-09-10T01:29:26.892Z,87.79
2022-09-10T01:34:34.498Z,87.90
2022-09-10T01:39:37.693Z,87.93
2022-09-10T01:44:48.612Z,87.64
2022-09-10T01:50:10.445Z,87.50
2022-09-10T01:55:31.072Z,87.55
2022-09-10T02:00:34.222Z,87.40
2022-09-10T02:05:38.722Z,87.19
2022-09-10T02:10:54.457Z,87.48
2022-09-10T02:15:57.399Z,87.33
2022-09-10T02:21:00.411Z,87.28
2022-09-10T02:26:03.152Z,87.23
2022-09-10T02:31:06.038Z,87.26
2022-09-10T02:36:08.726Z,87.19
2022-09-10T02:41:11.587Z,87.09
2022-09-10T02:46:15.107Z,86.99
2022-09-10T02:51:17.776Z,86.85
2022-09-10T02:56:20.402Z,86.84
2022-09-10T03:01:23.994Z,86.91
2022-09-10T03:06:28.340Z,86.86
2022-09-10T03:11:31.764Z,86.92
2022-09-10T03:16:34.475Z,86.93
2022-09-10T03:21:37.631Z,87.03
2022-09-10T03:26:40.344Z,86.75
2022-09-10T03:31:44.259Z,86.85
2022-09-10T03:36:47.423Z,86.80
2022-09-10T03:41:50.510Z,86.61
2022-09-10T03:46:53.219Z,86.40
2022-09-10T03:51:56.342Z,86.62
2022-09-10T03:57:03.122Z,86.81
2022-09-10T04:02:05.857Z,86.56
2022-09-10T04:07:10.577Z,86.73
2022-09-10T04:12:13.284Z,86.41
2022-09-10T04:17:15.896Z,86.44
2022-09-10T04:22:18.675Z,86.40
2022-09-10T04:27:22.335Z,86.42
2022-09-10T04:32:25.275Z,86.21
2022-09-10T04:37:29.013Z,86.34
2022-09-10T04:42:32.870Z,86.39
2022-09-10T04:47:35.909Z,86.35
2022-09-10T04:52:39.092Z,86.11
2022-09-10T04:57:42.304Z,86.45
2022-09-10T05:02:46.563Z,86.03
2022-09-10T05:07:49.798Z,85.89
2022-09-10T05:12:52.501Z,85.80
2022-09-10T05:17:56.076Z,86.02
2022-09-10T05:22:58.808Z,85.86
2022-09-10T05:28:02.992Z,85.75
2022-09-10T05:33:05.728Z,86.15
2022-09-10T05:38:13.718Z,85.94
2022-09-10T05:43:16.482Z,86.00
2022-09-10T05:48:19.644Z,85.80
2022-09-10T05:53:22.380Z,85.87
2022-09-10T05:58:25.426Z,85.80
2022-09-10T06:03:28.186Z,85.52
2022-09-10T06:08:31.427Z,85.20
2022-09-10T06:13:34.513Z,85.33
2022-09-10T06:18:37.426Z,85.19
2022-09-10T06:23:40.287Z,85.63
2022-09-10T06:28:43.465Z,85.66
2022-09-10T06:33:47.399Z,85.33
2022-09-10T06:38:50.084Z,85.22
2022-09-10T06:43:52.724Z,85.29
2022-09-10T06:49:00.798Z,85.13
2022-09-10T06:54:04.070Z,84.80
2022-09-10T06:59:07.444Z,85.11
2022-09-10T07:04:10.396Z,84.99
2022-09-10T07:09:14.329Z,84.68
2022-09-10T07:14:18.103Z,84.34
2022-09-10T07:19:20.849Z,84.73
2022-09-10T07:24:23.611Z,84.68
2022-09-10T07:29:26.374Z,84.22
2022-09-10T07:34:30.170Z,84.00
2022-09-10T07:39:32.840Z,84.19
2022-09-10T07:44:35.509Z,84.28
2022-09-10T07:49:38.986Z,84.07
2022-09-10T07:54:41.713Z,83.98
2022-09-10T07:59:44.478Z,83.78
2022-09-10T08:04:47.248Z,83.68
2022-09-10T08:09:49.981Z,83.63
2022-09-10T08:14:52.647Z,83.61
2022-09-10T08:19:55.386Z,83.13
2022-09-10T08:24:59.194Z,82.73
2022-09-10T08:30:01.958Z,82.50
2022-09-10T08:35:05.969Z,82.31
2022-09-10T08:40:13.412Z,82.01
2022-09-10T08:45:23.559Z,81.40
2022-09-10T08:50:38.022Z,81.53
2022-09-10T08:55:48.371Z,81.32
2022-09-10T09:00:58.147Z,81.20
2022-09-10T09:06:03.816Z,81.05
2022-09-10T09:11:28.877Z,81.29
2022-09-10T09:17:24.142Z,81.14
2022-09-10T09:22:40.020Z,80.90
2022-09-10T09:27:43.026Z,80.81
2022-09-10T09:32:47.121Z,80.99
2022-09-10T09:37:56.502Z,81.30
2022-09-10T09:43:11.128Z,81.66
2022-09-10T09:48:15.927Z,80.99
2022-09-10T09:53:28.947Z,80.79
2022-09-10T09:58:34.805Z,80.40
2022-09-10T10:03:54.424Z,80.33
2022-09-10T10:09:08.192Z,79.85
2022-09-10T10:14:35.324Z,79.32
2022-09-10T10:19:40.230Z,79.09
2022-09-10T10:24:43.751Z,79.08
2022-09-10T10:30:16.721Z,78.77
2022-09-10T10:35:47.771Z,78.57
2022-09-10T10:41:18.730Z,78.46
2022-09-10T10:46:28.080Z,78.85
2022-09-10T10:52:02.564Z,78.70
2022-09-10T10:57:21.479Z,78.18
2022-09-10T11:02:49.741Z,78.75
2022-09-10T11:07:52.865Z,79.17
2022-09-10T11:13:43.690Z,79.00
2022-09-10T11:19:11.515Z,78.60
2022-09-10T11:24:45.573Z,77.82
2022-09-10T11:29:56.101Z,77.70
2022-09-10T11:35:16.239Z,78.12
2022-09-10T11:40:35.819Z,77.98
2022-09-10T11:45:57.095Z,78.54
2022-09-10T11:51:08.022Z,78.33
2022-09-10T11:56:30.577Z,78.22
2022-09-10T12:01:55.064Z,78.39
2022-09-10T12:07:29.529Z,78.55
2022-09-10T12:12:43.273Z,78.53
2022-09-10T12:17:50.926Z,78.38
2022-09-10T12:22:55.013Z,78.22
2022-09-10T12:27:59.936Z,78.58
2022-09-10T12:33:11.709Z,78.49
2022-09-10T12:39:20.801Z,78.28
2022-09-10T12:44:36.200Z,78.57
2022-09-10T12:49:59.642Z,78.66
2022-09-10T12:55:39.699Z,78.36
2022-09-10T13:00:54.319Z,78.07
2022-09-10T13:06:00.275Z,77.82
2022-09-10T13:11:22.965Z,77.59
2022-09-10T13:16:28.505Z,77.33
2022-09-10T13:21:31.204Z,77.42
2022-09-10T13:26:48.394Z,77.93
2022-09-10T13:31:53.109Z,78.27
2022-09-10T13:37:52.172Z,78.35
2022-09-10T13:43:44.822Z,78.26
2022-09-10T13:49:13.133Z,78.06
2022-09-10T13:54:35.044Z,77.61
2022-09-10T13:59:37.852Z,77.56
2022-09-10T14:04:44.369Z,77.78
2022-09-10T14:09:58.508Z,77.46
2022-09-10T14:15:03.803Z,77.53
2022-09-10T14:20:29.411Z,77.69
2022-09-10T14:25:36.816Z,78.09
2022-09-10T14:30:39.628Z,78.37
2022-09-10T14:35:44.666Z,78.16
2022-09-10T14:40:47.847Z,77.45
2022-09-10T14:45:51.634Z,77.13
2022-09-10T14:51:12.283Z,77.21
2022-09-10T14:56:30.303Z,77.31
2022-09-10T15:01:35.344Z,77.71
2022-09-10T15:06:38.235Z,78.09
2022-09-10T15:12:06.067Z,78.49
2022-09-10T15:17:13.463Z,79.02
2022-09-10T15:22:27.929Z,78.71
2022-09-10T15:27:30.956Z,78.71
2022-09-10T15:32:33.720Z,78.66
2022-09-10T15:37:36.393Z,78.49
2022-09-10T15:42:39.112Z,78.57
2022-09-10T15:47:42.360Z,78.70
2022-09-10T15:52:45.174Z,78.95
2022-09-10T15:57:51.742Z,79.16
2022-09-10T16:02:54.469Z,79.05
2022-09-10T16:07:57.263Z,79.51
2022-09-10T16:13:00.042Z,79.64
2022-09-10T16:18:02.944Z,79.80
2022-09-10T16:23:05.700Z,79.66
2022-09-10T16:28:08.363Z,79.62
2022-09-10T16:33:11.255Z,79.95
2022-09-10T16:38:14.348Z,80.04
2022-09-10T16:43:17.108Z,80.19
2022-09-10T16:48:19.791Z,80.18
2022-09-10T16:53:22.626Z,80.35
2022-09-10T16:58:25.728Z,80.29
2022-09-10T17:03:30.065Z,80.49
2022-09-10T17:08:33.530Z,80.67
2022-09-10T17:13:36.190Z,80.63
2022-09-10T17:18:38.912Z,80.68
2022-09-10T17:23:42.056Z,80.76
2022-09-10T17:28:44.801Z,80.63
2022-09-10T17:33:47.564Z,80.65
2022-09-10T17:38:50.270Z,80.67
2022-09-10T17:43:53.469Z,80.59
2022-09-10T17:48:56.157Z,80.95
2022-09-10T17:53:59.320Z,81.15
2022-09-10T17:59:03.508Z,81.09
2022-09-10T18:04:07.405Z,81.14
2022-09-10T18:09:11.289Z,81.20
2022-09-10T18:14:17.959Z,81.20
2022-09-10T18:19:20.699Z,81.33
2022-09-10T18:24:24.254Z,81.53
2022-09-10T18:29:28.290Z,81.60
2022-09-10T18:34:31.536Z,81.56
2022-09-10T18:39:34.338Z,81.63
2022-09-10T18:44:37.492Z,81.43
2022-09-10T18:49:41.373Z,81.23
2022-09-10T18:54:46.591Z,81.12
2022-09-10T18:59:49.959Z,81.77
2022-09-10T19:05:10.807Z,81.96
2022-09-10T19:10:14.455Z,81.73
2022-09-10T19:15:18.656Z,82.01
2022-09-10T19:20:21.961Z,82.16
2022-09-10T19:25:24.805Z,82.21
2022-09-10T19:30:27.542Z,82.04
2022-09-10T19:35:30.219Z,82.10
2022-09-10T19:40:33.141Z,82.46
2022-09-10T19:45:36.253Z,82.40
2022-09-10T19:50:40.064Z,82.14
2022-09-10T19:55:43.408Z,82.45
2022-09-10T20:00:49.375Z,82.35
2022-09-10T20:05:52.107Z,82.28
2022-09-10T20:10:55.500Z,82.16
2022-09-10T20:16:06.115Z,82.27
2022-09-10T20:21:11.886Z,82.47
2022-09-10T20:26:22.493Z,82.30
2022-09-10T20:31:28.168Z,82.43
2022-09-10T20:36:31.520Z,82.71
2022-09-10T20:41:34.209Z,82.80
2022-09-10T20:46:38.054Z,83.10
2022-09-10T20:51:40.981Z,83.21
2022-09-10T20:56:44.345Z,83.47
2022-09-10T21:01:47.673Z,83.21
2022-09-10T21:06:50.563Z,83.18
2022-09-10T21:11:53.361Z,83.12
2022-09-10T21:16:56.126Z,83.00
2022-09-10T21:21:58.780Z,83.25
2022-09-10T21:27:03.142Z,83.47
2022-09-10T21:32:06.084Z,83.57
2022-09-10T21:37:09.934Z,83.63
2022-09-10T21:42:12.617Z,83.42
2022-09-10T21:47:15.391Z,83.65
2022-09-10T21:52:18.095Z,83.58
2022-09-10T21:57:20.848Z,83.91
2022-09-10T22:02:23.712Z,84.12
2022-09-10T22:07:27.101Z,84.22
2022-09-10T22:12:29.772Z,84.86
2022-09-10T22:17:32.466Z,84.74
2022-09-10T22:22:35.241Z,84.61
2022-09-10T22:27:39.646Z,84.57
2022-09-10T22:32:42.377Z,84.99
2022-09-10T22:37:46.059Z,85.21
2022-09-10T22:42:48.705Z,85.84
2022-09-10T22:47:51.395Z,86.17
2022-09-10T22:52:54.648Z,86.92
2022-09-10T22:57:57.378Z,86.90
2022-09-10T23:03:01.693Z,87.47
2022-09-10T23:08:04.361Z,87.57
2022-09-10T23:13:07.062Z,87.84
2022-09-10T23:18:09.810Z,88.17
2022-09-10T23:23:12.521Z,88.57
2022-09-10T23:28:15.264Z,88.72
2022-09-10T23:33:18.095Z,88.69
2022-09-10T23:38:21.312Z,88.75
2022-09-10T23:43:24.442Z,88.88
2022-09-10T23:48:27.281Z,89.12
2022-09-10T23:53:32.553Z,89.82
2022-09-10T23:58:35.495Z,89.84
